Kanab, UT

1:46 PM MST on November 24, 2014 (GMT -0700)
RAWS TELEGRAPH FLAT UT US | Change Station
CLOSE
Current Station
Personal Weather Station
Location: Kanab, UT
Elevation: 5459 ft
Nearby Weather Stations

Elev 5459 ft 37.19 °N, 112.03 °W | Updated 49 minutes ago

Clear
Clear
47 °F
Feels Like 39 °F
N
21
Wind Variable Wind from North
Gusts 35.0 mph

Today
High -- | Low -- °F
--% Chance of Precip.
Yesterday
High -- | Low -- °F
Precip. -- in
7:16 AM 5:13 PM
Waxing Crescent, 7% visible
Pressure 30.34 in
Visibility 10.0 miles
Clouds Clear
Windchill 39 °F
Dew Point 3 °F
Humidity 16%
Rainfall 0.00 in
Snow Depth Not available.
UV 3 out of 12
Pollen .20 out of 12
Air Quality Not available.
Flu Activity Not available.
METAR KAZC 242035Z AUTO 32017G28KT 10SM CLR 11/M14 A3034 RMK AO2 T01091145

More Conditions Fewer Conditions

Pressure 30.34 in
Visibility 10.0 miles
Clouds Clear
Windchill 39 °F
Dew Point 3 °F
Humidity 16%
Rainfall 0.00 in
Snow Depth Not available.
UV 3 out of 12
Pollen .20 out of 12
Air Quality Not available.
Flu Activity Not available.
METAR KAZC 242035Z AUTO 32017G28KT 10SM CLR 11/M14 A3034 RMK AO2 T01091145

More Conditions Fewer Conditions

10-Day Weather Forecast

Almanac

Astronomy

Nov. 24, 2014 Rise Set
Actual Time
Civil Twilight
Nautical Twilight
Astronomical Twilight
Moon
Length of Visible Light
Length of Day
Tomorrow will be .
, % of the Moon is Illuminated

Today's Extremes

State Highs State Lows

Community

WunderPhotos

Upload Photos

1,773,410 photos uploaded!

WunderBlogs® & News

Nearby

Air Quality

  Air Quality AQ Index Pollutant
Not available.

Snow Depth

Station Depth Elevation

Earthquake Activity

City Distance Mag. Time & Date
Minimum magnitude displayed is 2.5.

Coastal Water Temperatures

Place Temperature

Nearby Weather Stations